Time;durP1;ratioP1;P1;durP2;ratioP2;P2;SDS_P1;SDS_P2;PMS_P1;PMS_P2;Temp;Humidity;BMP_temperature;BMP_pressure;BME280_temperature;BME280_humidity;BME280_pressure;Samples;Min_cycle;Max_cycle;Signal;HPM_P1;HPM_P2
2021/05/29 06:59:11;;;;;;;4.63;4.10;;;15.40;99.90;;;;;;5088564;27;20467;-76
2021/05/29 07:01:36;;;;;;;4.10;3.80;;;15.30;99.90;;;;;;5089305;28;20685;-74
2021/05/29 07:04:02;;;;;;;4.80;3.67;;;15.60;99.90;;;;;;5088084;28;20193;-73
2021/05/29 07:06:28;;;;;;;4.93;3.55;;;15.80;99.90;;;;;;5086601;28;20811;-72
2021/05/29 07:08:56;;;;;;;3.85;3.55;;;16.10;99.90;;;;;;5089325;28;20203;-72
2021/05/29 07:11:22;;;;;;;3.45;3.22;;;16.30;99.90;;;;;;5088800;28;20869;-73
2021/05/29 07:13:48;;;;;;;3.83;3.53;;;16.50;99.90;;;;;;5089236;28;20228;-73
2021/05/29 07:16:14;;;;;;;4.72;3.90;;;16.70;99.90;;;;;;5089108;28;20289;-73
2021/05/29 07:18:49;;;;;;;6.90;3.33;;;16.90;99.90;;;;;;5087722;28;20210;-73
2021/05/29 07:21:16;;;;;;;3.50;3.20;;;17.00;99.90;;;;;;5087353;28;20201;-73
2021/05/29 07:23:43;;;;;;;6.25;3.60;;;17.20;99.90;;;;;;5087674;28;20671;-73
2021/05/29 07:26:09;;;;;;;3.35;3.05;;;17.50;99.90;;;;;;5087389;28;20194;-77
2021/05/29 07:28:35;;;;;;;3.60;3.30;;;17.70;99.90;;;;;;5087421;28;20266;-75
2021/05/29 07:31:00;;;;;;;3.38;3.13;;;17.80;99.90;;;;;;5088773;28;20201;-75
2021/05/29 07:33:26;;;;;;;6.32;3.40;;;17.90;99.90;;;;;;5088855;28;20166;-75
2021/05/29 07:35:53;;;;;;;3.55;3.20;;;18.20;99.90;;;;;;5086926;28;20213;-75
2021/05/29 07:38:19;;;;;;;4.88;3.38;;;18.40;99.90;;;;;;5088718;28;20233;-75
2021/05/29 07:40:45;;;;;;;4.45;3.08;;;18.50;99.90;;;;;;5087397;28;20201;-74
2021/05/29 07:43:11;;;;;;;3.38;3.05;;;18.60;99.90;;;;;;5088893;28;20526;-75
2021/05/29 07:45:37;;;;;;;3.42;3.20;;;18.80;99.90;;;;;;5087222;28;20233;-74
2021/05/29 07:48:04;;;;;;;3.67;3.30;;;19.00;98.40;;;;;;5087384;28;20259;-75
2021/05/29 07:50:30;;;;;;;4.15;3.75;;;19.10;98.70;;;;;;5088345;28;20194;-75
2021/05/29 07:52:56;;;;;;;3.25;3.03;;;18.90;95.80;;;;;;5088312;28;20643;-75
2021/05/29 07:55:22;;;;;;;3.65;3.35;;;18.70;99.00;;;;;;5088253;28;20225;-75
2021/05/29 07:57:48;;;;;;;5.38;3.50;;;18.70;97.80;;;;;;5088067;28;20230;-77
2021/05/29 08:00:17;;;;;;;3.88;3.15;;;18.70;97.90;;;;;;5088319;28;20187;-74
2021/05/29 08:02:43;;;;;;;3.30;2.97;;;18.90;98.20;;;;;;5088443;28;20256;-75
2021/05/29 08:05:17;;;;;;;3.20;2.97;;;19.30;99.50;;;;;;5088033;28;20275;-74
2021/05/29 08:07:43;;;;;;;3.35;2.80;;;19.50;97.10;;;;;;5088176;28;20703;-75
2021/05/29 08:10:09;;;;;;;6.05;3.35;;;19.70;96.10;;;;;;5076727;28;20187;-74
2021/05/29 08:12:36;;;;;;;4.45;2.90;;;20.00;96.20;;;;;;5073173;28;20178;-75
2021/05/29 08:15:02;;;;;;;4.60;3.47;;;20.30;95.70;;;;;;5073141;28;20258;-72
2021/05/29 08:17:27;;;;;;;5.05;3.22;;;20.50;94.90;;;;;;5074340;28;20210;-72
2021/05/29 08:19:53;;;;;;;3.17;2.97;;;20.50;91.40;;;;;;5074336;28;20205;-72
2021/05/29 08:22:18;;;;;;;3.42;3.13;;;20.00;89.90;;;;;;5072492;28;20174;-72
2021/05/29 08:24:44;;;;;;;3.45;3.15;;;19.60;93.10;;;;;;5072799;28;20857;-72
2021/05/29 08:27:10;;;;;;;3.97;3.33;;;19.60;93.40;;;;;;5073525;28;20474;-72
2021/05/29 08:29:36;;;;;;;8.77;3.78;;;19.60;93.50;;;;;;5063540;28;20254;-73
2021/05/29 08:32:01;;;;;;;3.05;2.85;;;19.70;92.30;;;;;;5070501;28;20596;-72
2021/05/29 08:34:27;;;;;;;3.03;2.83;;;19.80;91.70;;;;;;5073034;28;20170;-78
2021/05/29 08:36:53;;;;;;;3.20;2.90;;;19.70;93.40;;;;;;5073793;28;20205;-73
2021/05/29 08:39:18;;;;;;;4.07;2.53;;;19.80;93.00;;;;;;5073998;28;20242;-76
2021/05/29 08:41:45;;;;;;;6.07;3.03;;;19.90;92.80;;;;;;5072560;28;20199;-76
2021/05/29 08:44:10;;;;;;;4.05;3.10;;;19.60;94.30;;;;;;5073917;28;20171;-76
2021/05/29 08:46:37;;;;;;;4.13;2.80;;;19.50;96.10;;;;;;5069458;28;20187;-76
2021/05/29 08:49:04;;;;;;;3.22;3.00;;;19.60;98.90;;;;;;5069674;28;20225;-75
2021/05/29 08:51:30;;;;;;;3.60;2.90;;;20.00;99.10;;;;;;5069367;28;20230;-75
2021/05/29 08:53:57;;;;;;;4.88;3.25;;;20.20;98.10;;;;;;5071602;28;20206;-76
2021/05/29 08:56:26;;;;;;;5.28;2.90;;;20.30;96.30;;;;;;5069848;28;20203;-75
2021/05/29 08:58:56;;;;;;;3.33;2.97;;;20.30;96.60;;;;;;5070870;28;20230;-76
2021/05/29 09:01:23;;;;;;;4.88;3.08;;;20.10;95.90;;;;;;5072997;28;20668;-76
2021/05/29 09:03:52;;;;;;;3.60;3.30;;;19.90;95.90;;;;;;5072032;28;20171;-75
2021/05/29 09:06:35;;;;;;;4.10;3.33;;;19.70;95.90;;;;;;5072057;28;20195;-75
2021/05/29 09:09:08;;;;;;;8.05;5.03;;;19.50;96.10;;;;;;5072302;28;20210;-74
2021/05/29 09:11:52;;;;;;;6.78;5.05;;;19.30;96.60;;;;;;5072261;28;20226;-70
2021/05/29 09:14:23;;;;;;;5.03;4.53;;;18.90;99.90;;;;;;5072057;28;20183;-75
2021/05/29 14:35:32;;;;;;;1.05;1.00;;;;;;;;;;5066386;28;20654;-69
2021/05/29 14:37:58;;;;;;;1.48;1.25;;;35.90;27.50;;;;;;5047759;28;20255;-69
2021/05/29 14:40:24;;;;;;;0.73;0.73;;;;;;;;;;5046693;28;20286;-70
2021/05/29 14:45:12;;;;;;;0.90;0.90;;;33.10;30.20;;;;;;5128534;27;20297;-70
2021/05/29 14:47:38;;;;;;;1.00;0.70;;;32.00;30.60;;;;;;5107776;28;20253;-70
2021/05/29 14:50:04;;;;;;;0.70;0.63;;;31.90;33.00;;;;;;5120034;28;20221;-70
2021/05/29 14:52:29;;;;;;;0.85;0.85;;;31.40;32.80;;;;;;5114817;28;20166;-70
2021/05/29 14:54:55;;;;;;;2.42;1.00;;;;;;;;;;5119349;28;20510;-70
2021/05/29 14:57:21;;;;;;;1.00;0.80;;;;;;;;;;5120357;28;20170;-69
2021/05/29 14:59:48;;;;;;;3.13;0.90;;;;;;;;;;5118789;28;20632;-70
2021/05/29 15:06:05;;;;;;;2.20;0.88;;;26.10;39.40;;;;;;5137922;27;20292;-70
2021/05/29 15:08:33;;;;;;;2.15;1.08;;;24.80;44.20;;;;;;5128769;27;20185;-69
2021/05/29 15:10:58;;;;;;;1.85;1.13;;;23.40;45.50;;;;;;5129986;27;20185;-69
2021/05/29 15:13:24;;;;;;;1.40;1.27;;;22.90;47.70;;;;;;5130150;28;20244;-69
2021/05/29 15:15:50;;;;;;;2.40;1.13;;;22.70;48.80;;;;;;5130231;27;20192;-70
2021/05/29 15:18:15;;;;;;;1.00;1.00;;;22.40;49.10;;;;;;5130134;28;20197;-70
2021/05/29 15:23:09;;;;;;;2.10;1.10;;;21.90;49.30;;;;;;5119655;28;20174;-69
2021/05/29 15:25:37;;;;;;;2.08;1.40;;;21.50;50.20;;;;;;5091066;28;20236;-69
2021/05/29 15:28:03;;;;;;;1.27;1.17;;;21.20;50.10;;;;;;5109351;28;20241;-69
2021/05/29 15:30:28;;;;;;;2.35;1.20;;;21.00;51.30;;;;;;5125278;28;20284;-70
2021/05/29 15:32:54;;;;;;;1.40;1.20;;;21.00;51.70;;;;;;5109175;28;20616;-71
2021/05/29 15:35:20;;;;;;;1.30;1.20;;;21.10;54.00;;;;;;5116706;27;20254;-70
2021/05/29 15:37:46;;;;;;;1.58;1.30;;;21.10;52.70;;;;;;5126087;28;20190;-72
2021/05/29 15:40:12;;;;;;;3.42;1.33;;;21.00;54.00;;;;;;5108230;28;20186;-72
2021/05/29 15:42:38;;;;;;;2.80;1.30;;;20.90;53.00;;;;;;5127234;28;20169;-71
2021/05/29 15:45:05;;;;;;;1.40;1.30;;;20.90;53.00;;;;;;5108609;27;20209;-70
2021/05/29 15:47:31;;;;;;;1.40;1.20;;;21.20;54.30;;;;;;5127373;28;20199;-72
2021/05/29 15:49:57;;;;;;;1.08;1.08;;;21.60;55.00;;;;;;5126827;27;20169;-71
2021/05/29 15:52:22;;;;;;;1.27;1.17;;;21.90;51.50;;;;;;5127874;28;20515;-72
2021/05/29 15:54:48;;;;;;;1.45;1.35;;;22.10;51.70;;;;;;5128829;27;20172;-71
2021/05/29 15:57:14;;;;;;;1.30;1.20;;;22.30;51.50;;;;;;5129176;28;20166;-72
2021/05/29 15:59:40;;;;;;;1.27;1.02;;;22.50;52.10;;;;;;5129014;28;20623;-72
2021/05/29 16:02:06;;;;;;;1.25;1.15;;;22.60;52.00;;;;;;5129265;27;20225;-72
2021/05/29 16:04:33;;;;;;;1.45;1.27;;;22.60;50.20;;;;;;5128787;28;20228;-72
2021/05/29 16:06:58;;;;;;;1.75;1.40;;;22.30;51.50;;;;;;5128449;27;20294;-70
2021/05/29 16:09:24;;;;;;;1.45;1.35;;;22.20;51.50;;;;;;5128963;28;20626;-72
2021/05/29 16:11:50;;;;;;;1.60;1.30;;;22.20;52.20;;;;;;5127953;27;20190;-71
2021/05/29 16:14:16;;;;;;;3.05;1.40;;;21.80;52.50;;;;;;5127853;28;20165;-72
2021/05/29 16:16:42;;;;;;;1.48;1.38;;;21.60;53.50;;;;;;5118686;27;20190;-72
2021/05/29 16:19:08;;;;;;;1.35;1.25;;;21.40;52.30;;;;;;5113891;28;20180;-72
2021/05/29 16:21:33;;;;;;;2.20;1.40;;;21.10;54.50;;;;;;5114914;28;20208;-72
2021/05/29 16:24:00;;;;;;;1.70;1.60;;;20.90;56.70;;;;;;5096339;28;20296;-72
2021/05/29 16:26:25;;;;;;;3.08;1.55;;;20.60;58.30;;;;;;5115088;28;20181;-71
2021/05/29 16:28:51;;;;;;;1.63;1.52;;;20.50;59.50;;;;;;5115273;28;20318;-71
2021/05/29 16:31:17;;;;;;;1.70;1.60;;;20.30;60.80;;;;;;5116956;28;20204;-72
2021/05/29 16:33:43;;;;;;;5.32;1.50;;;20.10;61.00;;;;;;5118078;28;20635;-72
2021/05/29 16:36:14;;;;;;;1.60;1.50;;;19.90;62.10;;;;;;5098520;28;20240;-72
2021/05/29 16:38:41;;;;;;;4.90;1.35;;;19.60;64.20;;;;;;5117130;28;20173;-72
2021/05/29 16:41:09;;;;;;;2.97;1.38;;;19.40;66.80;;;;;;5115531;28;20197;-72
2021/05/29 16:43:39;;;;;;;1.80;1.60;;;19.20;67.90;;;;;;5116399;28;20250;-72
2021/05/29 16:46:05;;;;;;;2.63;1.70;;;18.90;71.00;;;;;;5116352;28;20339;-72
2021/05/29 16:48:32;;;;;;;1.60;1.50;;;18.70;72.40;;;;;;5117439;28;20173;-70
2021/05/29 16:50:59;;;;;;;3.47;1.92;;;18.60;74.30;;;;;;5114811;28;20284;-70
2021/05/29 16:53:46;;;;;;;2.20;2.00;;;18.50;76.00;;;;;;5111006;28;20197;-70
2021/05/29 16:56:17;;;;;;;1.63;1.45;;;18.40;77.70;;;;;;5111598;28;20281;-71
2021/05/29 16:58:43;;;;;;;1.67;1.40;;;18.50;79.00;;;;;;5110910;28;20165;-70
2021/05/29 17:01:10;;;;;;;2.58;1.48;;;18.30;79.80;;;;;;5093555;28;20251;-71
2021/05/29 17:03:37;;;;;;;2.40;1.50;;;18.40;81.10;;;;;;5092949;28;20422;-70
2021/05/29 17:06:05;;;;;;;1.30;1.20;;;18.50;81.60;;;;;;5078130;28;20275;-70
2021/05/29 17:08:31;;;;;;;3.67;1.48;;;18.70;81.50;;;;;;5114301;28;20197;-70
2021/05/29 17:11:03;;;;;;;2.72;1.40;;;18.60;80.10;;;;;;5114398;28;20213;-70
2021/05/29 17:13:33;;;;;;;1.60;1.50;;;18.40;81.90;;;;;;5114088;28;20256;-70
2021/05/29 17:16:01;;;;;;;1.45;1.35;;;18.40;83.50;;;;;;5122891;27;20197;-70
2021/05/29 17:18:27;;;;;;;2.17;1.33;;;18.40;81.30;;;;;;5116072;27;20181;-70
2021/05/29 17:20:53;;;;;;;3.25;1.65;;;18.40;83.70;;;;;;5134126;27;20279;-70
2021/05/29 17:23:19;;;;;;;2.10;1.90;;;18.20;80.70;;;;;;5134471;27;20169;-70
2021/05/29 17:25:45;;;;;;;2.37;2.10;;;18.00;76.70;;;;;;5114660;27;20923;-69
2021/05/29 17:28:10;;;;;;;2.28;2.08;;;17.90;77.60;;;;;;5120335;27;20535;-70
2021/05/29 17:30:36;;;;;;;2.10;1.95;;;17.80;79.40;;;;;;5093076;28;20602;-69
2021/05/29 17:33:02;;;;;;;2.17;1.98;;;17.60;78.80;;;;;;5110577;28;20212;-70
2021/05/29 17:35:28;;;;;;;2.22;2.03;;;17.50;79.30;;;;;;5111051;28;20295;-70
2021/05/29 17:37:54;;;;;;;2.63;1.90;;;17.40;80.50;;;;;;5111230;28;20244;-70
2021/05/29 17:40:20;;;;;;;2.50;2.08;;;17.40;82.10;;;;;;5092760;28;20229;-70
2021/05/29 17:42:45;;;;;;;2.40;2.08;;;17.20;82.90;;;;;;5092576;28;20257;-71
2021/05/29 17:45:11;;;;;;;5.10;2.30;;;17.10;85.00;;;;;;5111445;28;20209;-69
2021/05/29 17:47:37;;;;;;;2.22;1.90;;;17.00;86.50;;;;;;5110962;28;20624;-69
2021/05/29 17:50:03;;;;;;;2.53;1.90;;;16.70;86.10;;;;;;5111270;28;20457;-69
2021/05/29 17:52:29;;;;;;;4.22;2.05;;;16.70;86.70;;;;;;5111125;28;20416;-70
2021/05/29 17:54:58;;;;;;;2.42;2.22;;;16.60;87.70;;;;;;5111236;28;20192;-69
2021/05/29 17:57:39;;;;;;;3.08;2.03;;;16.60;87.90;;;;;;5110134;28;20450;-71
2021/05/29 18:02:34;;;;;;;3.15;2.03;;;16.50;88.50;;;;;;5109738;28;20414;-70
2021/05/29 18:05:00;;;;;;;2.42;2.20;;;16.60;87.50;;;;;;5110499;28;20209;-70
2021/05/29 18:07:25;;;;;;;2.15;1.95;;;16.50;88.40;;;;;;5110608;28;20211;-71
2021/05/29 18:09:51;;;;;;;4.68;3.50;;;16.60;90.20;;;;;;5110661;28;20215;-71
2021/05/29 18:12:16;;;;;;;2.30;2.10;;;16.50;92.80;;;;;;5110909;28;20601;-69
2021/05/29 18:14:42;;;;;;;2.60;2.40;;;16.30;94.90;;;;;;5092491;28;20561;-73
2021/05/29 18:17:08;;;;;;;4.03;2.33;;;16.20;96.80;;;;;;5110672;28;20645;-73
2021/05/29 18:19:33;;;;;;;4.10;2.22;;;16.20;97.70;;;;;;5110682;28;20300;-72
2021/05/29 18:21:59;;;;;;;2.25;1.85;;;16.20;98.00;;;;;;5092109;28;20504;-72
2021/05/29 18:24:25;;;;;;;3.28;2.33;;;16.00;98.00;;;;;;5091997;28;20225;-72
2021/05/29 18:26:50;;;;;;;5.03;2.88;;;15.90;98.80;;;;;;5110392;28;20190;-72
2021/05/29 18:29:16;;;;;;;1.80;1.70;;;15.80;99.20;;;;;;5091859;28;20185;-72
2021/05/29 18:31:42;;;;;;;3.63;1.90;;;15.70;99.90;;;;;;5110528;28;20395;-72
2021/05/29 18:34:08;;;;;;;2.70;2.13;;;15.60;99.80;;;;;;5110158;28;20398;-72
2021/05/29 18:36:35;;;;;;;2.55;2.00;;;15.50;99.90;;;;;;5109286;28;20896;-71
2021/05/29 18:39:14;;;;;;;2.17;1.80;;;15.50;99.90;;;;;;5091584;28;20331;-71
2021/05/29 18:41:48;;;;;;;5.05;2.20;;;15.50;99.90;;;;;;5091750;28;20197;-72
2021/05/29 18:44:15;;;;;;;3.80;1.98;;;15.40;99.90;;;;;;5109577;28;20193;-72
2021/05/29 18:46:41;;;;;;;1.95;1.80;;;15.40;99.90;;;;;;5110424;28;20198;-72
2021/05/29 18:49:11;;;;;;;3.80;2.22;;;15.30;99.90;;;;;;5109207;28;20905;-71
2021/05/29 18:51:40;;;;;;;3.25;2.30;;;15.20;99.90;;;;;;5109548;28;20201;-72
2021/05/29 18:54:06;;;;;;;1.88;1.67;;;15.00;99.90;;;;;;5091933;28;20173;-71
2021/05/29 18:56:32;;;;;;;4.25;2.22;;;14.90;99.90;;;;;;5109984;28;20280;-70
2021/05/29 18:59:03;;;;;;;2.88;2.20;;;14.70;99.90;;;;;;5091207;28;20213;-71
2021/05/29 19:04:20;;;;;;;2.63;2.05;;;14.60;99.90;;;;;;5109793;28;20232;-69
2021/05/29 19:06:52;;;;;;;3.85;2.13;;;14.40;99.90;;;;;;5109539;28;20251;-72
2021/05/29 19:09:20;;;;;;;3.65;2.00;;;14.30;99.90;;;;;;5109042;28;20647;-72
2021/05/29 19:11:46;;;;;;;2.33;1.85;;;14.20;99.90;;;;;;5109671;28;20764;-70
2021/05/29 19:14:12;;;;;;;2.35;2.10;;;14.10;99.90;;;;;;5110286;28;20162;-70
2021/05/29 19:16:38;;;;;;;2.08;1.83;;;14.10;99.90;;;;;;5110058;28;20256;-71
2021/05/29 19:19:05;;;;;;;2.40;2.20;;;14.00;99.90;;;;;;5110261;28;20162;-69
2021/05/29 19:21:31;;;;;;;2.97;2.30;;;13.90;99.90;;;;;;5108627;28;20432;-72
2021/05/29 19:28:55;;;;;;;2.33;2.08;;;13.80;99.90;;;;;;5109777;28;20172;-72
2021/05/29 19:31:27;;;;;;;2.33;2.13;;;13.80;99.90;;;;;;5109811;28;20222;-72
2021/05/29 19:39:24;;;;;;;2.55;2.10;;;13.70;99.90;;;;;;5109767;28;20256;-71
2021/05/29 19:41:51;;;;;;;2.22;2.03;;;13.70;99.90;;;;;;5109265;28;20201;-73
2021/05/29 20:04:36;;;;;;;2.80;2.40;;;13.50;99.90;;;;;;5113205;28;20227;-74
2021/05/29 20:11:39;;;;;;;2.95;2.55;;;13.20;99.90;;;;;;5113131;28;20678;-73
2021/05/29 20:25:10;;;;;;;2.70;2.50;;;13.00;99.90;;;;;;5113002;28;20212;-73
2021/05/29 20:27:36;;;;;;;3.53;2.90;;;12.90;99.90;;;;;;5113878;28;20169;-73
2021/05/29 20:30:02;;;;;;;4.65;2.20;;;13.00;99.90;;;;;;5113350;28;20182;-73
2021/05/29 20:32:28;;;;;;;2.33;2.13;;;12.90;99.90;;;;;;5118309;27;20601;-72
2021/05/29 20:35:05;;;;;;;5.93;2.85;;;12.90;99.90;;;;;;5135583;27;20382;-72
2021/05/29 20:37:35;;;;;;;3.45;2.15;;;13.00;99.90;;;;;;5117489;27;20623;-72
2021/05/29 20:40:05;;;;;;;2.65;2.22;;;12.90;99.90;;;;;;5135308;27;20593;-73
2021/05/29 20:42:32;;;;;;;2.45;2.10;;;12.90;99.90;;;;;;5117200;27;20631;-72
2021/05/29 20:44:59;;;;;;;2.30;2.10;;;12.90;99.90;;;;;;5116882;27;20606;-72
2021/05/29 20:47:25;;;;;;;3.92;1.95;;;12.90;99.90;;;;;;5135271;27;20165;-72
2021/05/29 20:49:50;;;;;;;2.72;2.33;;;12.90;99.90;;;;;;5116633;27;20218;-72
2021/05/29 20:52:16;;;;;;;2.35;2.15;;;12.80;99.90;;;;;;5116588;27;20226;-73
2021/05/29 20:54:42;;;;;;;2.55;2.35;;;12.80;99.90;;;;;;5135220;27;20199;-72
2021/05/29 20:57:10;;;;;;;2.00;1.90;;;12.80;99.90;;;;;;5135017;27;20681;-73
2021/05/29 20:59:36;;;;;;;2.40;2.10;;;12.70;99.90;;;;;;5134498;27;20197;-72
2021/05/29 21:02:04;;;;;;;3.13;2.40;;;12.60;99.90;;;;;;5134570;27;20187;-72
2021/05/29 21:04:35;;;;;;;8.15;6.22;;;12.60;99.90;;;;;;5133742;27;20278;-72
2021/05/29 21:07:09;;;;;;;10.05;5.95;;;12.60;99.90;;;;;;5134764;27;20189;-72
2021/05/29 21:09:37;;;;;;;8.40;3.90;;;12.50;99.90;;;;;;5134671;27;20172;-72
2021/05/29 21:12:04;;;;;;;5.80;3.53;;;12.40;99.90;;;;;;5135000;27;20194;-72
2021/05/29 21:22:43;;;;;;;2.60;2.40;;;12.10;99.90;;;;;;5134855;27;20188;-72
2021/05/29 21:25:11;;;;;;;2.67;2.40;;;12.10;99.90;;;;;;5134484;27;20209;-72
2021/05/29 21:27:37;;;;;;;4.15;2.92;;;12.00;99.90;;;;;;5116173;27;20583;-72
2021/05/29 21:30:08;;;;;;;3.08;2.67;;;12.00;99.90;;;;;;5134320;27;20173;-72
2021/05/29 21:32:33;;;;;;;5.68;2.83;;;11.90;99.90;;;;;;5134426;27;20201;-73
2021/05/29 21:34:59;;;;;;;3.58;3.20;;;11.90;99.90;;;;;;5115791;27;20201;-72
2021/05/29 21:37:25;;;;;;;2.85;2.65;;;12.00;99.90;;;;;;5134171;27;20187;-72
2021/05/29 21:39:51;;;;;;;3.45;2.88;;;11.90;99.90;;;;;;5115759;27;20639;-72
2021/05/29 21:42:16;;;;;;;2.60;2.35;;;12.00;99.90;;;;;;5134131;27;20498;-72
2021/05/29 21:44:47;;;;;;;3.05;2.75;;;12.00;99.90;;;;;;5134122;27;20576;-72
2021/05/29 21:49:58;;;;;;;4.47;3.38;;;12.00;99.90;;;;;;5134164;27;20226;-72
2021/05/29 21:52:24;;;;;;;3.00;2.80;;;12.00;99.90;;;;;;5133669;27;20161;-72
2021/05/29 21:54:50;;;;;;;4.07;2.88;;;12.00;99.90;;;;;;5133737;27;20661;-72
2021/05/29 21:57:15;;;;;;;3.20;2.90;;;12.10;99.90;;;;;;5134583;27;20634;-71
2021/05/29 21:59:46;;;;;;;3.63;2.80;;;12.00;99.90;;;;;;5135411;27;20169;-71
2021/05/29 22:02:12;;;;;;;3.42;2.92;;;12.00;99.90;;;;;;5134131;27;20512;-72
2021/05/29 22:04:39;;;;;;;2.60;2.40;;;12.00;99.90;;;;;;5133582;27;20227;-72
2021/05/29 22:07:04;;;;;;;3.28;2.58;;;12.10;99.90;;;;;;5133369;27;20192;-71
2021/05/29 22:09:32;;;;;;;2.95;2.75;;;12.10;99.90;;;;;;5133605;27;20168;-72
2021/05/29 22:12:01;;;;;;;3.13;2.90;;;12.20;99.90;;;;;;5133770;27;20428;-72
2021/05/29 22:20:02;;;;;;;4.55;3.15;;;12.20;99.90;;;;;;5133510;27;20662;-72
